CYUX 040900Z AUTO 32009KT 9SM CLR M43/M48 A2988 RMK SLP121
From batch tds/metars/production/2023/2/4/h09_m26_metars.cache.csv.gz
Observed at (about 1 hour ago)
Identifier CYUX
CYUX 040800Z AUTO 31011KT 9SM CLR M44/M48 A2987 RMK SLP120
From batch tds/metars/production/2023/2/4/h08_m27_metars.cache.csv.gz
Observed at (about 2 hours ago)
Identifier CYUX
CYUX 040700Z AUTO 33010KT 9SM CLR M44/M49 A2987 RMK SLP118
From batch tds/metars/production/2023/2/4/h07_m19_metars.cache.csv.gz
Observed at (about 3 hours ago)
Identifier CYUX
CYUX 040600Z AUTO 32010KT 9SM CLR M44/M49 A2987 RMK SLP118
From batch tds/metars/production/2023/2/4/h06_m24_metars.cache.csv.gz
Observed at (about 4 hours ago)
Identifier CYUX
CYUX 040500Z AUTO 33010KT 9SM CLR M44/M48 A2987 RMK SLP117
From batch tds/metars/production/2023/2/4/h05_m24_metars.cache.csv.gz
Observed at (about 5 hours ago)
Identifier CYUX
CYUX 040400Z AUTO 33009KT 9SM CLR M43/M48 A2986 RMK SLP115
From batch tds/metars/production/2023/2/4/h04_m25_metars.cache.csv.gz
Observed at (about 6 hours ago)
Identifier CYUX
CYUX 040300Z AUTO 33011KT 9SM CLR M44/M48 A2986 RMK SLP114
From batch tds/metars/production/2023/2/4/h03_m27_metars.cache.csv.gz
Observed at (about 7 hours ago)
Identifier CYUX
CYUX 040200Z AUTO 33010KT 9SM CLR M44/M49 A2985 RMK SLP113
From batch tds/metars/production/2023/2/4/h02_m20_metars.cache.csv.gz
Observed at (about 8 hours ago)
Identifier CYUX
CYUX 040100Z AUTO 33009KT 9SM CLR M44/M49 A2985 RMK SLP113
From batch tds/metars/production/2023/2/4/h01_m29_metars.cache.csv.gz
Observed at (about 9 hours ago)
Identifier CYUX
CYUX 032100Z 34010KT 10SM FEW070 M43/M48 A2985 RMK AC1 SLP113
From batch tds/metars/production/2023/2/3/h21_m26_metars.cache.csv.gz
Observed at (about 13 hours ago)
Identifier CYUX
CYUX 032000Z 33010KT 10SM FEW050 M43/M48 A2985 RMK SC2 SLP111
From batch tds/metars/production/2023/2/3/h20_m20_metars.cache.csv.gz
Observed at (about 14 hours ago)
Identifier CYUX
CYUX 031900Z 34009KT 9SM FEW020 M43/M48 A2984 RMK SC1 SLP107
From batch tds/metars/production/2023/2/3/h19_m22_metars.cache.csv.gz
Observed at (about 15 hours ago)
Identifier CYUX
CYUX 031100Z AUTO 33011KT 9SM CLR M43/M47 A2984 RMK SLP109
From batch tds/metars/production/2023/2/3/h11_m20_metars.cache.csv.gz
Observed at (about 23 hours ago)
Identifier CYUX
talk